Time;durP1;ratioP1;P1;durP2;ratioP2;P2;SDS_P1;SDS_P2;PMS_P1;PMS_P2;Temp;Humidity;BMP_temperature;BMP_pressure;BME280_temperature;BME280_humidity;BME280_pressure;Samples;Min_cycle;Max_cycle;Signal;HPM_P1;HPM_P2
2022/06/18 00:01:33;;;;;;;5.10;4.60;;;26.50;56.60;;;;;;5025820;28;20039;-62
2022/06/18 00:04:10;;;;;;;4.82;4.25;;;26.40;56.60;;;;;;5024714;28;20017;-61
2022/06/18 00:06:50;;;;;;;7.18;4.50;;;26.40;56.60;;;;;;5041071;28;20028;-61
2022/06/18 00:09:16;;;;;;;4.90;3.80;;;26.40;56.80;;;;;;5024277;28;20121;-62
2022/06/18 00:14:26;;;;;;;6.57;3.75;;;26.30;56.80;;;;;;5027346;28;20082;-61
2022/06/18 00:16:51;;;;;;;6.18;3.80;;;26.30;56.90;;;;;;5042491;28;20041;-61
2022/06/18 00:19:17;;;;;;;9.02;4.00;;;26.10;56.80;;;;;;5042650;28;20040;-62
2022/06/18 00:21:42;;;;;;;5.80;4.32;;;26.20;56.90;;;;;;5043453;28;20048;-61
2022/06/18 00:24:13;;;;;;;6.72;4.43;;;26.20;57.00;;;;;;5024782;28;20017;-62
2022/06/18 00:26:39;;;;;;;6.07;4.75;;;26.20;57.10;;;;;;5042341;28;20174;-61
2022/06/18 00:29:07;;;;;;;6.97;4.90;;;26.10;57.10;;;;;;5042463;28;20059;-61
2022/06/18 00:31:33;;;;;;;6.47;4.85;;;26.10;57.20;;;;;;5024128;28;20124;-62
2022/06/18 00:33:58;;;;;;;4.32;3.92;;;26.10;57.30;;;;;;5041925;28;20131;-62
2022/06/18 00:36:24;;;;;;;4.72;4.00;;;26.00;57.30;;;;;;5020945;28;20056;-62
2022/06/18 00:38:49;;;;;;;4.15;3.75;;;26.00;57.50;;;;;;5022798;28;20512;-62
2022/06/18 00:41:19;;;;;;;4.10;3.70;;;26.00;57.50;;;;;;5042582;28;20048;-62
2022/06/18 00:43:49;;;;;;;5.95;4.03;;;26.00;57.60;;;;;;5023953;28;20511;-62
2022/06/18 00:46:28;;;;;;;8.52;3.55;;;25.90;57.70;;;;;;5023524;28;20117;-62
2022/06/18 00:49:15;;;;;;;4.55;3.92;;;25.90;57.80;;;;;;5022331;28;20083;-62
2022/06/18 00:51:44;;;;;;;4.75;3.53;;;25.90;58.00;;;;;;5023731;28;20111;-61
2022/06/18 00:54:33;;;;;;;4.72;3.83;;;25.90;58.10;;;;;;5008031;28;20033;-61
2022/06/18 00:57:28;;;;;;;5.40;4.60;;;25.80;58.10;;;;;;5022986;28;20766;-60
2022/06/18 01:00:16;;;;;;;6.43;4.72;;;25.80;58.30;;;;;;5022086;28;20422;-61
2022/06/18 01:02:43;;;;;;;6.80;4.70;;;25.70;58.30;;;;;;5023325;28;20095;-61
2022/06/18 01:05:18;;;;;;;4.95;3.90;;;25.70;58.50;;;;;;5022334;28;20068;-62
2022/06/18 01:07:44;;;;;;;5.20;4.17;;;25.70;58.60;;;;;;5023650;28;20037;-61
2022/06/18 01:10:17;;;;;;;8.55;4.20;;;25.60;58.70;;;;;;5021549;28;20545;-61
2022/06/18 01:12:43;;;;;;;6.82;4.10;;;25.60;58.80;;;;;;5022600;28;20072;-61
2022/06/18 01:15:10;;;;;;;6.38;4.20;;;25.60;58.90;;;;;;5021815;28;20528;-61
2022/06/18 01:17:35;;;;;;;4.80;3.70;;;25.60;59.10;;;;;;5018305;28;20337;-61
2022/06/18 01:20:04;;;;;;;4.85;4.10;;;25.50;59.10;;;;;;5023271;28;20508;-61
2022/06/18 01:22:58;;;;;;;6.03;3.85;;;25.50;59.30;;;;;;5024755;28;20029;-62
2022/06/18 01:25:25;;;;;;;6.32;3.85;;;25.40;59.30;;;;;;5022454;28;20314;-61
2022/06/18 01:27:51;;;;;;;7.57;3.92;;;25.40;59.30;;;;;;5025914;28;20021;-61
2022/06/18 01:30:18;;;;;;;6.38;3.78;;;25.40;59.40;;;;;;5025456;28;20032;-61
2022/06/18 01:32:44;;;;;;;3.88;3.47;;;25.40;59.50;;;;;;5026328;28;20045;-62
2022/06/18 01:35:10;;;;;;;6.75;3.25;;;25.30;59.60;;;;;;5011102;28;20049;-62
2022/06/18 01:37:35;;;;;;;3.85;3.45;;;25.30;59.60;;;;;;5010230;28;20135;-62
2022/06/18 01:40:03;;;;;;;6.03;3.47;;;25.20;59.80;;;;;;5025889;28;20178;-62
2022/06/18 01:42:40;;;;;;;4.60;3.85;;;25.20;59.90;;;;;;5011066;28;20146;-61
2022/06/18 01:45:06;;;;;;;5.18;3.55;;;25.30;60.00;;;;;;5027242;28;20029;-61
2022/06/18 01:47:44;;;;;;;6.43;3.60;;;25.10;60.00;;;;;;5024921;28;20032;-61
2022/06/18 01:50:32;;;;;;;10.88;4.03;;;25.10;60.00;;;;;;5026009;28;20052;-62
2022/06/18 01:53:06;;;;;;;6.45;3.45;;;25.00;60.10;;;;;;5025422;28;20501;-61
2022/06/18 01:55:36;;;;;;;3.92;3.10;;;25.00;60.20;;;;;;5040533;28;20698;-61
2022/06/18 01:58:05;;;;;;;4.38;3.53;;;25.00;60.30;;;;;;5023616;28;20052;-62
2022/06/18 02:00:31;;;;;;;5.65;3.50;;;24.90;60.40;;;;;;5011611;28;20169;-61
2022/06/18 02:02:58;;;;;;;4.47;3.20;;;24.90;60.60;;;;;;5027529;28;20401;-61
2022/06/18 02:05:24;;;;;;;3.97;3.28;;;24.90;60.70;;;;;;5044225;28;20195;-61
2022/06/18 02:07:49;;;;;;;7.22;3.50;;;24.90;60.80;;;;;;5025032;28;20356;-61
2022/06/18 02:10:21;;;;;;;6.10;3.60;;;24.80;61.10;;;;;;5041558;28;20430;-62
2022/06/18 02:12:47;;;;;;;7.28;3.50;;;24.80;61.30;;;;;;5027495;28;20120;-61
2022/06/18 02:15:18;;;;;;;7.32;3.55;;;24.80;61.50;;;;;;5011113;28;20355;-62
2022/06/18 02:17:43;;;;;;;6.97;3.38;;;24.70;61.80;;;;;;5024214;28;20413;-61
2022/06/18 02:20:15;;;;;;;5.80;3.58;;;24.70;61.90;;;;;;5024641;28;20048;-61
2022/06/18 02:22:42;;;;;;;11.25;3.35;;;24.60;61.90;;;;;;5024380;28;20162;-61
2022/06/18 02:25:08;;;;;;;5.65;3.60;;;24.60;61.90;;;;;;5040586;28;20033;-61
2022/06/18 02:27:34;;;;;;;6.85;3.42;;;24.60;61.90;;;;;;5026018;28;20095;-61
2022/06/18 02:29:59;;;;;;;7.35;3.25;;;24.60;62.00;;;;;;5023843;28;20052;-62
2022/06/18 02:32:37;;;;;;;9.07;3.35;;;24.60;62.20;;;;;;5025098;28;20136;-61
2022/06/18 02:35:12;;;;;;;9.68;3.30;;;24.50;62.10;;;;;;5008306;28;20025;-62
2022/06/18 02:37:37;;;;;;;6.63;3.67;;;24.50;62.40;;;;;;5024621;28;20039;-62
2022/06/18 02:40:03;;;;;;;9.32;3.85;;;24.40;62.70;;;;;;5042613;28;20033;-61
2022/06/18 02:42:32;;;;;;;7.03;3.90;;;24.40;62.70;;;;;;5044194;28;20383;-62
2022/06/18 02:44:57;;;;;;;6.82;3.90;;;24.40;62.80;;;;;;5006773;28;20484;-61
2022/06/18 02:47:23;;;;;;;11.93;4.00;;;24.40;62.90;;;;;;5023893;28;20032;-62
2022/06/18 02:49:53;;;;;;;11.55;3.58;;;24.30;63.10;;;;;;5024140;28;20035;-62
2022/06/18 02:52:20;;;;;;;8.20;4.10;;;24.30;63.30;;;;;;5006424;28;20150;-61
2022/06/18 02:54:47;;;;;;;9.73;3.72;;;24.30;63.40;;;;;;5022106;28;20544;-61
2022/06/18 02:57:22;;;;;;;11.73;3.88;;;24.30;63.50;;;;;;5042192;28;20025;-62
2022/06/18 02:59:47;;;;;;;8.88;3.72;;;24.30;63.50;;;;;;5023387;28;20470;-60
2022/06/18 03:02:13;;;;;;;6.55;4.03;;;24.30;63.60;;;;;;5023205;28;20521;-62
2022/06/18 03:04:38;;;;;;;8.32;3.50;;;24.30;63.60;;;;;;5025917;28;20033;-62
2022/06/18 03:07:04;;;;;;;7.60;4.72;;;24.20;63.80;;;;;;5042812;28;20504;-61
2022/06/18 03:09:29;;;;;;;7.07;3.90;;;24.20;63.90;;;;;;5040553;28;20025;-62
2022/06/18 03:12:07;;;;;;;6.93;4.35;;;24.10;63.90;;;;;;5022343;28;20133;-61
2022/06/18 03:14:33;;;;;;;6.25;3.72;;;24.10;64.10;;;;;;5039959;28;20037;-62
2022/06/18 03:16:59;;;;;;;11.00;3.80;;;24.10;64.10;;;;;;5043690;28;20029;-61
2022/06/18 03:19:32;;;;;;;7.68;3.85;;;24.10;64.30;;;;;;5041665;28;20044;-61
2022/06/18 03:22:04;;;;;;;7.97;3.60;;;24.00;64.40;;;;;;5042143;28;20029;-61
2022/06/18 03:24:29;;;;;;;10.13;3.60;;;24.00;64.60;;;;;;5021419;28;20044;-62
2022/06/18 03:26:55;;;;;;;5.00;3.50;;;24.00;65.00;;;;;;5041202;28;20056;-61
2022/06/18 03:29:20;;;;;;;5.57;3.33;;;23.90;65.30;;;;;;5041425;28;20052;-62
2022/06/18 03:31:46;;;;;;;4.45;3.58;;;23.90;65.30;;;;;;5009272;28;20044;-62
2022/06/18 03:34:11;;;;;;;6.60;3.92;;;23.90;65.30;;;;;;5023727;28;21103;-62
2022/06/18 03:36:37;;;;;;;7.53;3.40;;;23.90;65.50;;;;;;5040354;28;20334;-61
2022/06/18 03:39:02;;;;;;;11.98;3.45;;;23.80;65.70;;;;;;5020944;28;20328;-61
2022/06/18 03:41:28;;;;;;;6.95;3.38;;;23.80;65.80;;;;;;5023323;28;20454;-62
2022/06/18 03:43:54;;;;;;;6.82;2.90;;;23.80;66.10;;;;;;5025081;28;20883;-62
2022/06/18 03:46:19;;;;;;;6.40;3.03;;;23.70;66.30;;;;;;5025009;28;20539;-61
2022/06/18 03:48:52;;;;;;;8.27;2.95;;;23.70;66.50;;;;;;5041033;28;20111;-62
2022/06/18 03:51:17;;;;;;;5.10;2.80;;;23.70;66.50;;;;;;5022968;28;20095;-61
2022/06/18 03:53:43;;;;;;;7.88;2.95;;;23.70;66.70;;;;;;5021658;28;20029;-62
2022/06/18 03:56:10;;;;;;;7.72;3.30;;;23.70;67.00;;;;;;5025155;28;20116;-61
2022/06/18 03:58:35;;;;;;;4.63;2.78;;;23.70;66.90;;;;;;5023430;28;20025;-62
2022/06/18 04:01:01;;;;;;;7.57;3.30;;;23.70;67.00;;;;;;5042683;28;20033;-62
2022/06/18 04:03:27;;;;;;;3.95;3.15;;;23.60;67.30;;;;;;5021963;28;20041;-61
2022/06/18 04:05:52;;;;;;;7.97;3.63;;;23.60;67.50;;;;;;5040613;28;20515;-61
2022/06/18 04:08:19;;;;;;;6.65;4.00;;;23.60;67.60;;;;;;5039234;28;20017;-61
2022/06/18 04:10:44;;;;;;;5.70;3.80;;;23.60;67.80;;;;;;5024688;28;20052;-62
2022/06/18 04:13:10;;;;;;;4.75;3.50;;;23.60;67.90;;;;;;5042709;28;20075;-61
2022/06/18 04:15:35;;;;;;;4.05;3.72;;;23.50;67.90;;;;;;5022602;28;20045;-62
2022/06/18 04:18:01;;;;;;;6.45;4.68;;;23.50;67.90;;;;;;5005976;28;20085;-61
2022/06/18 04:20:33;;;;;;;4.45;4.05;;;23.50;67.90;;;;;;5024077;28;20064;-62
2022/06/18 04:22:58;;;;;;;7.00;4.07;;;23.50;68.00;;;;;;5007032;28;20039;-61
2022/06/18 04:25:24;;;;;;;7.28;3.97;;;23.50;68.20;;;;;;5024012;28;20029;-61
2022/06/18 04:27:50;;;;;;;5.03;3.45;;;23.50;68.00;;;;;;5022218;28;20060;-62
2022/06/18 04:30:16;;;;;;;7.90;4.20;;;23.50;68.00;;;;;;5042057;28;20040;-61
2022/06/18 04:32:41;;;;;;;5.15;3.90;;;23.50;68.00;;;;;;5043301;28;20052;-63
2022/06/18 04:35:08;;;;;;;5.55;3.80;;;23.40;67.80;;;;;;5023179;28;20434;-61
2022/06/18 04:37:34;;;;;;;4.20;3.70;;;23.50;68.00;;;;;;5007201;28;20037;-63
2022/06/18 04:39:59;;;;;;;6.22;3.88;;;23.40;68.00;;;;;;5018252;28;20039;-61
2022/06/18 04:42:25;;;;;;;5.68;3.72;;;23.40;68.00;;;;;;5040335;28;20052;-61
2022/06/18 04:44:51;;;;;;;7.32;3.63;;;23.40;67.90;;;;;;5022274;28;20170;-61
2022/06/18 04:47:17;;;;;;;6.72;3.47;;;23.40;68.00;;;;;;5023682;28;20135;-62
2022/06/18 04:49:43;;;;;;;5.30;3.50;;;23.40;68.00;;;;;;5041952;28;20457;-63
2022/06/18 04:52:08;;;;;;;3.90;3.33;;;23.40;68.00;;;;;;5024012;28;20037;-62
2022/06/18 04:54:34;;;;;;;4.72;3.60;;;23.30;68.10;;;;;;5020757;28;20099;-62
2022/06/18 04:56:59;;;;;;;5.53;3.80;;;23.30;68.10;;;;;;5022304;28;20365;-62
2022/06/18 04:59:25;;;;;;;3.83;3.40;;;23.30;68.10;;;;;;5041520;28;20452;-62
2022/06/18 05:02:01;;;;;;;6.95;3.35;;;23.30;68.10;;;;;;5040067;28;20353;-61
2022/06/18 05:04:26;;;;;;;6.82;3.40;;;23.30;68.20;;;;;;5007112;28;20495;-61
2022/06/18 05:06:52;;;;;;;5.28;3.30;;;23.30;68.30;;;;;;5040068;28;20183;-61
2022/06/18 05:09:18;;;;;;;3.83;3.33;;;23.30;68.40;;;;;;5016359;28;20122;-63
2022/06/18 05:11:44;;;;;;;4.80;3.15;;;23.30;68.40;;;;;;5022464;28;20040;-61
2022/06/18 05:14:09;;;;;;;5.03;3.20;;;23.30;68.40;;;;;;5024092;28;20488;-62
2022/06/18 05:16:35;;;;;;;5.40;3.60;;;23.30;68.40;;;;;;5041538;28;20437;-62
2022/06/18 05:19:01;;;;;;;5.80;3.85;;;23.20;68.30;;;;;;5023043;28;20018;-61
2022/06/18 05:21:26;;;;;;;5.47;3.40;;;23.30;68.30;;;;;;5019752;28;20036;-61
2022/06/18 05:23:52;;;;;;;3.70;3.05;;;23.30;68.40;;;;;;5034652;28;20068;-62
2022/06/18 05:26:18;;;;;;;4.75;3.05;;;23.30;68.30;;;;;;5040917;28;20592;-62
2022/06/18 05:28:44;;;;;;;5.90;3.33;;;23.20;68.30;;;;;;5039516;28;20124;-62
2022/06/18 05:31:09;;;;;;;5.20;3.50;;;23.40;68.30;;;;;;5023415;28;20116;-62
2022/06/18 05:33:35;;;;;;;25.15;5.65;;;23.30;68.20;;;;;;5021867;28;20060;-62
2022/06/18 05:36:01;;;;;;;16.42;5.10;;;23.30;68.30;;;;;;5020679;28;20064;-61
2022/06/18 05:38:26;;;;;;;19.45;4.97;;;23.30;68.20;;;;;;5017557;28;20224;-61
2022/06/18 05:40:52;;;;;;;16.38;4.70;;;23.30;68.30;;;;;;5022136;28;20688;-62
2022/06/18 05:43:17;;;;;;;12.23;4.10;;;23.30;68.30;;;;;;5002034;28;20364;-62
2022/06/18 05:45:43;;;;;;;15.50;4.57;;;23.30;68.40;;;;;;5020043;28;20657;-62
2022/06/18 05:48:09;;;;;;;12.55;4.45;;;23.30;68.30;;;;;;5019519;28;20068;-62
2022/06/18 05:50:35;;;;;;;17.42;5.20;;;23.30;68.30;;;;;;5005877;28;20481;-62
2022/06/18 05:53:00;;;;;;;13.63;3.95;;;23.30;68.30;;;;;;5040079;28;20167;-62
2022/06/18 05:55:26;;;;;;;15.45;4.53;;;23.20;68.30;;;;;;5004321;28;20338;-62
2022/06/18 05:57:53;;;;;;;17.17;4.65;;;23.30;68.40;;;;;;5039023;28;20492;-61
2022/06/18 06:00:20;;;;;;;13.50;4.65;;;23.30;68.50;;;;;;5006057;28;21071;-62
2022/06/18 06:02:45;;;;;;;13.95;4.65;;;23.20;68.50;;;;;;5017798;28;20041;-62
2022/06/18 06:05:11;;;;;;;14.65;4.53;;;23.30;68.50;;;;;;5007179;28;20025;-61
2022/06/18 06:07:36;;;;;;;16.27;4.40;;;23.30;68.50;;;;;;5022791;28;20051;-62
2022/06/18 06:12:52;;;;;;;15.85;4.30;;;23.30;68.60;;;;;;5026327;28;20948;-61
2022/06/18 06:15:17;;;;;;;10.85;4.00;;;23.30;68.60;;;;;;5025794;28;20041;-61
2022/06/18 06:17:43;;;;;;;15.00;4.65;;;23.30;68.70;;;;;;5025963;28;20025;-61
2022/06/18 06:20:17;;;;;;;25.42;4.25;;;23.30;68.80;;;;;;5039505;28;20052;-62
2022/06/18 06:22:43;;;;;;;22.70;5.13;;;23.30;68.80;;;;;;5026633;28;20119;-61
2022/06/18 06:25:08;;;;;;;15.85;4.50;;;23.30;68.80;;;;;;5025087;28;20123;-62
2022/06/18 06:27:34;;;;;;;10.25;4.65;;;23.30;68.80;;;;;;5025105;28;20041;-61
2022/06/18 06:30:00;;;;;;;19.85;4.90;;;23.30;68.80;;;;;;5043787;28;20063;-62
2022/06/18 06:32:25;;;;;;;12.88;4.28;;;23.30;68.80;;;;;;5027542;28;20396;-61
2022/06/18 06:34:51;;;;;;;16.42;5.00;;;23.40;69.00;;;;;;5023440;28;20140;-62
2022/06/18 06:37:17;;;;;;;39.38;5.78;;;23.30;69.00;;;;;;5022955;28;20037;-62
2022/06/18 06:39:43;;;;;;;57.72;7.70;;;23.40;69.10;;;;;;5022407;28;20032;-62
2022/06/18 06:42:08;;;;;;;39.47;6.07;;;23.40;69.10;;;;;;5007932;28;20411;-62
2022/06/18 06:44:34;;;;;;;31.52;7.15;;;23.40;69.10;;;;;;5025854;28;20045;-62
2022/06/18 06:46:59;;;;;;;36.88;6.72;;;23.40;69.30;;;;;;5025763;28;20127;-62
2022/06/18 06:49:25;;;;;;;27.23;6.95;;;23.40;69.20;;;;;;5044736;28;20388;-61
2022/06/18 06:51:53;;;;;;;51.42;8.35;;;23.40;69.00;;;;;;5039041;28;20036;-62
2022/06/18 06:54:19;;;;;;;32.17;6.53;;;23.40;69.30;;;;;;5022484;28;20033;-62
2022/06/18 06:59:28;;;;;;;33.58;6.97;;;23.40;69.10;;;;;;5043492;28;20152;-62
2022/06/18 07:01:54;;;;;;;25.23;5.90;;;23.40;69.00;;;;;;5022436;28;20108;-62
2022/06/18 07:04:19;;;;;;;41.20;8.23;;;23.40;69.10;;;;;;5039258;28;20029;-62
2022/06/18 07:06:45;;;;;;;54.47;8.48;;;23.40;69.20;;;;;;5019395;28;20056;-62
2022/06/18 07:09:10;;;;;;;33.58;6.50;;;23.50;69.30;;;;;;5021466;28;20060;-62
2022/06/18 07:11:37;;;;;;;23.27;5.80;;;23.50;69.40;;;;;;5041185;28;20028;-61
2022/06/18 07:14:03;;;;;;;24.95;5.00;;;23.50;69.40;;;;;;5044422;28;20047;-61
2022/06/18 07:16:29;;;;;;;17.95;5.22;;;23.50;69.30;;;;;;5042587;28;20045;-62
2022/06/18 07:18:55;;;;;;;16.15;4.57;;;23.50;69.30;;;;;;5023852;28;20504;-62
2022/06/18 07:21:23;;;;;;;25.00;5.05;;;23.50;69.30;;;;;;5042359;28;20032;-61
2022/06/18 07:23:49;;;;;;;28.17;4.63;;;23.40;69.20;;;;;;5019140;28;20052;-62
2022/06/18 07:26:16;;;;;;;15.10;4.63;;;23.50;69.10;;;;;;5041322;28;20027;-66
2022/06/18 07:28:43;;;;;;;18.10;5.43;;;23.50;69.10;;;;;;5024610;28;20025;-61
2022/06/18 07:31:30;;;;;;;33.20;6.00;;;23.50;69.10;;;;;;5025097;28;20029;-61
2022/06/18 07:33:57;;;;;;;23.25;5.47;;;23.50;68.90;;;;;;5026750;28;20037;-62
2022/06/18 07:36:22;;;;;;;21.67;4.40;;;23.60;69.00;;;;;;5039720;28;20104;-62
2022/06/18 07:38:48;;;;;;;19.65;4.68;;;23.60;68.70;;;;;;5022250;28;20134;-61
2022/06/18 07:41:16;;;;;;;10.95;3.78;;;23.60;68.60;;;;;;5021433;28;20047;-61
2022/06/18 07:43:46;;;;;;;17.92;4.00;;;23.60;68.30;;;;;;5020426;28;20606;-61
2022/06/18 07:46:11;;;;;;;23.20;4.30;;;23.70;68.20;;;;;;5021889;28;20144;-61
2022/06/18 07:48:39;;;;;;;18.60;4.13;;;23.70;68.30;;;;;;5022089;28;20545;-63
2022/06/18 07:51:05;;;;;;;24.45;4.25;;;23.70;68.30;;;;;;5044209;28;20043;-64
2022/06/18 07:53:31;;;;;;;28.13;5.47;;;23.70;68.10;;;;;;5007797;28;20040;-64
2022/06/18 07:55:56;;;;;;;17.55;4.47;;;23.70;68.10;;;;;;5005890;28;20013;-65
2022/06/18 07:58:22;;;;;;;27.10;5.30;;;23.70;68.00;;;;;;5037166;28;20036;-64
2022/06/18 08:00:48;;;;;;;17.42;4.05;;;23.70;67.80;;;;;;5018656;28;20358;-63
2022/06/18 08:03:14;;;;;;;14.43;3.70;;;23.70;67.70;;;;;;5009127;28;20060;-65
2022/06/18 08:05:39;;;;;;;15.30;3.97;;;23.70;68.50;;;;;;5015908;28;20094;-63
2022/06/18 08:08:05;;;;;;;20.15;3.75;;;23.80;68.50;;;;;;5014361;28;20644;-65
2022/06/18 08:10:32;;;;;;;12.27;3.60;;;23.90;67.90;;;;;;5018818;28;20036;-62
2022/06/18 08:12:58;;;;;;;14.10;3.67;;;23.80;67.60;;;;;;5021936;28;20045;-62
2022/06/18 08:15:23;;;;;;;17.60;4.15;;;23.90;67.70;;;;;;4997400;28;20499;-64
2022/06/18 08:17:49;;;;;;;24.67;4.55;;;23.90;67.80;;;;;;5002938;28;20100;-63
2022/06/18 08:20:14;;;;;;;26.73;4.88;;;23.90;68.00;;;;;;5012273;28;20413;-64
2022/06/18 08:22:42;;;;;;;41.05;6.25;;;23.90;68.00;;;;;;5039876;28;20455;-64
2022/06/18 08:25:07;;;;;;;34.85;5.95;;;24.00;68.20;;;;;;5025162;28;20094;-62
2022/06/18 08:27:33;;;;;;;35.83;6.10;;;23.90;68.10;;;;;;5026457;28;20029;-62
2022/06/18 08:29:59;;;;;;;41.42;7.13;;;24.00;68.10;;;;;;5002033;28;20124;-66
2022/06/18 08:32:25;;;;;;;48.00;7.15;;;24.00;68.20;;;;;;5024146;28;20409;-63
2022/06/18 08:34:50;;;;;;;53.08;7.95;;;24.10;68.30;;;;;;5023899;28;20025;-63
2022/06/18 08:37:16;;;;;;;53.40;7.35;;;24.10;68.30;;;;;;5045575;28;20469;-63
2022/06/18 08:39:41;;;;;;;65.20;6.53;;;24.20;68.40;;;;;;5016178;28;20096;-61
2022/06/18 08:42:31;;;;;;;36.42;7.88;;;24.20;68.40;;;;;;5044933;28;20119;-63
2022/06/18 08:45:29;;;;;;;49.28;7.68;;;24.30;68.40;;;;;;5048361;28;20112;-62
2022/06/18 08:48:25;;;;;;;66.47;8.90;;;24.40;68.30;;;;;;4970171;28;20288;-62
2022/06/18 08:50:59;;;;;;;88.40;11.73;;;24.40;68.10;;;;;;5015870;28;20048;-61
2022/06/18 08:53:38;;;;;;;69.95;9.82;;;24.50;68.10;;;;;;4996770;28;20033;-61
2022/06/18 08:56:13;;;;;;;80.90;10.40;;;24.50;68.10;;;;;;5041842;28;20107;-60
2022/06/18 08:59:02;;;;;;;110.45;10.88;;;24.60;67.70;;;;;;5020025;28;20634;-61
2022/06/18 09:01:30;;;;;;;102.68;10.90;;;24.60;67.70;;;;;;5006304;28;20113;-63
2022/06/18 09:04:00;;;;;;;83.25;10.68;;;24.70;67.30;;;;;;5009826;28;20033;-63
2022/06/18 09:07:00;;;;;;;64.40;9.65;;;24.80;67.10;;;;;;5034621;28;20655;-62
2022/06/18 09:09:42;;;;;;;89.65;11.43;;;24.80;67.00;;;;;;5040273;28;20033;-64
2022/06/18 09:12:41;;;;;;;92.20;10.55;;;24.80;66.80;;;;;;5043961;28;20025;-61
2022/06/18 09:15:09;;;;;;;87.00;11.88;;;24.90;66.60;;;;;;5007958;28;20052;-62
2022/06/18 09:17:44;;;;;;;135.90;17.38;;;25.00;66.20;;;;;;5025187;28;20017;-62
2022/06/18 09:20:23;;;;;;;114.20;13.10;;;25.00;65.80;;;;;;5018468;28;20021;-63
2022/06/18 09:22:54;;;;;;;77.53;10.25;;;25.10;65.60;;;;;;5015923;28;20106;-63
2022/06/18 09:25:22;;;;;;;105.97;11.73;;;25.10;65.40;;;;;;5021338;28;20441;-62
2022/06/18 09:27:55;;;;;;;98.97;11.70;;;25.10;65.30;;;;;;4988300;28;20422;-62
2022/06/18 09:30:39;;;;;;;101.10;11.35;;;25.20;65.10;;;;;;5020398;28;20497;-62
2022/06/18 09:33:10;;;;;;;97.53;11.75;;;25.20;64.80;;;;;;5021640;28;20491;-62
2022/06/18 09:35:36;;;;;;;94.85;11.45;;;25.30;64.90;;;;;;5023483;28;20048;-62
2022/06/18 09:38:06;;;;;;;93.90;11.00;;;25.30;64.40;;;;;;5015950;28;20036;-62
2022/06/18 09:40:51;;;;;;;75.80;10.35;;;25.40;64.60;;;;;;5027758;28;20039;-63
2022/06/18 09:43:42;;;;;;;84.13;10.00;;;25.40;64.20;;;;;;5023554;28;20037;-62
2022/06/18 09:46:23;;;;;;;73.93;10.15;;;25.40;64.00;;;;;;5007903;28;20420;-63
2022/06/18 09:48:49;;;;;;;79.43;9.30;;;25.60;63.90;;;;;;5024949;28;20163;-63
2022/06/18 09:51:43;;;;;;;89.50;11.43;;;25.70;63.60;;;;;;5022800;28;20116;-63
2022/06/18 09:54:08;;;;;;;80.32;9.77;;;25.70;63.60;;;;;;5025293;28;20063;-60
2022/06/18 09:56:39;;;;;;;71.32;9.73;;;25.70;63.40;;;;;;5017210;28;20479;-62
2022/06/18 09:59:08;;;;;;;74.63;9.90;;;25.80;63.30;;;;;;5022514;28;20048;-62
2022/06/18 10:01:44;;;;;;;101.15;10.52;;;25.80;63.30;;;;;;5007484;28;20464;-62
2022/06/18 10:07:11;;;;;;;82.95;10.90;;;25.90;63.20;;;;;;5019545;28;20036;-61
2022/06/18 10:09:48;;;;;;;58.65;8.98;;;26.00;63.10;;;;;;4998275;28;20037;-63
2022/06/18 10:12:32;;;;;;;91.75;10.60;;;26.00;63.20;;;;;;5015014;28;20136;-61
2022/06/18 10:15:00;;;;;;;81.53;12.10;;;26.10;62.70;;;;;;5023731;28;20632;-62
2022/06/18 10:17:50;;;;;;;74.20;11.00;;;26.10;63.20;;;;;;5019465;28;20039;-62
2022/06/18 10:20:28;;;;;;;85.90;10.98;;;26.10;62.30;;;;;;5020148;28;20124;-63
2022/06/18 10:23:03;;;;;;;86.38;9.52;;;26.20;62.30;;;;;;5019219;28;20041;-62
2022/06/18 10:25:59;;;;;;;76.55;10.70;;;26.30;62.20;;;;;;5027286;28;20029;-62
2022/06/18 10:28:40;;;;;;;80.63;11.23;;;26.30;62.20;;;;;;5025159;28;20357;-61
2022/06/18 10:31:13;;;;;;;79.85;11.48;;;26.40;62.00;;;;;;5046960;28;20077;-62
2022/06/18 10:33:57;;;;;;;61.70;9.68;;;26.40;62.00;;;;;;5030927;28;20096;-62
2022/06/18 10:36:30;;;;;;;64.82;10.15;;;26.50;61.80;;;;;;5046980;28;20036;-62
2022/06/18 10:39:07;;;;;;;69.00;9.18;;;26.60;61.80;;;;;;5028401;28;20033;-61
2022/06/18 10:41:37;;;;;;;67.57;9.10;;;26.60;61.80;;;;;;5037263;28;20021;-62
2022/06/18 10:44:05;;;;;;;56.60;8.45;;;26.70;61.90;;;;;;5026993;28;20043;-61
2022/06/18 10:46:30;;;;;;;77.80;10.05;;;26.80;61.60;;;;;;5039536;28;20523;-61
2022/06/18 10:48:58;;;;;;;73.65;8.50;;;26.90;61.40;;;;;;4996301;28;20033;-63
2022/06/18 10:51:25;;;;;;;55.85;8.80;;;27.00;61.10;;;;;;5026882;28;20021;-62
2022/06/18 10:53:53;;;;;;;105.22;11.35;;;27.10;60.80;;;;;;5008508;28;20091;-61
2022/06/18 10:56:26;;;;;;;68.47;8.70;;;27.20;60.80;;;;;;5021488;28;20540;-62
2022/06/18 10:58:54;;;;;;;78.20;8.88;;;27.20;60.20;;;;;;5040514;28;20448;-62
2022/06/18 11:01:42;;;;;;;53.35;7.57;;;27.30;59.80;;;;;;5041750;28;20064;-62
2022/06/18 11:04:17;;;;;;;75.22;8.90;;;27.50;59.10;;;;;;5019221;28;20032;-62
2022/06/18 11:06:46;;;;;;;108.83;10.83;;;27.50;58.90;;;;;;5040266;28;20037;-62
2022/06/18 11:09:18;;;;;;;61.17;8.65;;;27.70;58.60;;;;;;5026349;28;20303;-61
2022/06/18 11:11:44;;;;;;;81.43;10.45;;;27.80;57.90;;;;;;5012249;28;20025;-61
2022/06/18 11:14:18;;;;;;;66.65;8.77;;;27.90;57.70;;;;;;5005278;28;20501;-62
2022/06/18 11:16:45;;;;;;;74.57;9.93;;;28.00;57.20;;;;;;5006198;28;20072;-62
2022/06/18 11:19:24;;;;;;;65.60;8.55;;;28.10;57.40;;;;;;5020224;28;20076;-62
2022/06/18 11:21:49;;;;;;;106.55;12.65;;;28.20;56.50;;;;;;5009189;28;20021;-62
2022/06/18 11:24:30;;;;;;;115.40;14.18;;;28.40;56.50;;;;;;5021821;28;20177;-62
2022/06/18 11:26:59;;;;;;;100.30;11.63;;;28.60;55.90;;;;;;5023234;28;20121;-62
2022/06/18 11:29:30;;;;;;;93.60;12.07;;;28.60;55.20;;;;;;5024191;28;20556;-62
2022/06/18 11:31:57;;;;;;;79.07;9.25;;;28.70;55.10;;;;;;5028854;28;20040;-61
2022/06/18 11:34:24;;;;;;;67.47;8.43;;;28.80;54.90;;;;;;5002793;28;20125;-62
2022/06/18 11:36:52;;;;;;;45.15;7.03;;;28.90;53.90;;;;;;5007105;28;20196;-61
2022/06/18 11:39:35;;;;;;;62.88;6.82;;;29.00;53.60;;;;;;5005510;28;20560;-62
2022/06/18 11:42:17;;;;;;;78.50;8.70;;;29.20;53.60;;;;;;5002306;28;20151;-62
2022/06/18 11:44:56;;;;;;;60.65;7.28;;;29.30;53.50;;;;;;5006755;28;20388;-62
2022/06/18 11:47:28;;;;;;;54.95;6.47;;;29.40;53.50;;;;;;5023615;28;20029;-61
2022/06/18 11:50:29;;;;;;;56.92;7.78;;;29.50;53.40;;;;;;5023107;28;20041;-62
2022/06/18 11:53:02;;;;;;;30.48;5.68;;;29.60;53.30;;;;;;4992128;28;21640;-63
2022/06/18 11:55:33;;;;;;;54.53;6.95;;;29.70;52.50;;;;;;5029530;28;20154;-62
2022/06/18 11:58:23;;;;;;;48.63;5.68;;;29.80;52.60;;;;;;5010590;28;20040;-64
2022/06/18 12:01:01;;;;;;;61.13;7.85;;;29.90;52.00;;;;;;5022479;28;21102;-62
2022/06/18 12:03:36;;;;;;;47.83;6.07;;;30.00;52.10;;;;;;5030913;28;20057;-62
2022/06/18 12:06:14;;;;;;;65.97;7.40;;;30.10;52.20;;;;;;5005559;28;20408;-62
2022/06/18 12:08:39;;;;;;;66.00;8.43;;;30.20;52.50;;;;;;5047223;28;20032;-63
2022/06/18 12:11:30;;;;;;;56.05;8.02;;;30.30;52.50;;;;;;5026858;28;20040;-61
2022/06/18 12:14:08;;;;;;;50.88;7.18;;;30.40;52.40;;;;;;5036351;28;20022;-62
2022/06/18 12:16:44;;;;;;;64.50;8.00;;;30.50;51.40;;;;;;5008794;28;20145;-62
2022/06/18 12:19:44;;;;;;;127.07;13.13;;;30.50;51.40;;;;;;5009789;28;20397;-62
2022/06/18 12:22:22;;;;;;;52.78;8.32;;;30.60;51.70;;;;;;4960489;28;20540;-62
2022/06/18 12:25:08;;;;;;;58.30;8.27;;;30.70;51.10;;;;;;5015470;28;20141;-62
2022/06/18 12:27:36;;;;;;;;;;;30.80;50.60;;;;;;5029555;28;20459;-61
2022/06/18 12:30:25;;;;;;;68.30;8.65;;;30.80;50.60;;;;;;5023398;28;19994;-62
2022/06/18 12:32:52;;;;;;;82.07;10.88;;;30.90;50.30;;;;;;5030675;28;20056;-61
2022/06/18 12:35:26;;;;;;;75.75;10.23;;;31.00;50.60;;;;;;5021077;28;20070;-62
2022/06/18 12:38:20;;;;;;;54.50;8.45;;;31.00;50.30;;;;;;4996285;28;20094;-63
2022/06/18 12:41:38;;;;;;;53.10;8.00;;;31.10;50.50;;;;;;5037702;28;20075;-62
2022/06/18 12:44:25;;;;;;;70.13;8.75;;;31.20;50.20;;;;;;5029994;28;20029;-62
2022/06/18 12:47:19;;;;;;;56.13;8.13;;;31.30;50.10;;;;;;5037168;28;20485;-63
2022/06/18 12:49:54;;;;;;;61.63;8.68;;;31.40;49.60;;;;;;5008542;28;20508;-62
2022/06/18 12:52:53;;;;;;;88.55;10.13;;;31.50;49.70;;;;;;5007369;28;20812;-62
2022/06/18 12:55:19;;;;;;;32.35;6.25;;;31.60;48.70;;;;;;4990383;28;20464;-62
2022/06/18 12:58:26;;;;;;;47.97;6.75;;;31.70;48.10;;;;;;5044238;28;20218;-61
2022/06/18 13:01:06;;;;;;;35.63;6.15;;;31.80;47.90;;;;;;5021694;28;20022;-62
2022/06/18 13:03:36;;;;;;;34.15;5.75;;;31.90;48.10;;;;;;5021917;28;20219;-62
2022/06/18 13:06:06;;;;;;;51.97;6.25;;;32.00;47.80;;;;;;5026767;28;20116;-63
2022/06/18 13:08:45;;;;;;;37.88;5.95;;;32.00;47.30;;;;;;5029152;28;20028;-62